Terminal Aerodrome Forecast
Issued by NWS

Home | Current Version | Previous Version | Graphics & Text | Print | Product List | Glossary On
Versions: 1 2 3 4 5 6 7 8 9 10 11 12 13
000
FTUS43 KGRB 011729
TAFAUW
TAF
KAUW 011729Z 0118/0218 08010G18KT P6SM SCT040 BKN080
     FM012200 07007KT P6SM SCT100
     FM020300 02003KT P6SM SKC
     FM021500 35005KT P6SM SCT050=

USA.gov is the U.S. government's official web portal to all federal, state and local government web resources and services.